sensor_id;sensor_type;location;lat;lon;timestamp;P1;durP1;ratioP1;P2;durP2;ratioP2
27201;SDS011;14717;46.924;15.474;2023-12-04T00:01:24;19.25;;;9.85;;
27201;SDS011;14717;46.924;15.474;2023-12-04T00:03:51;19.30;;;10.07;;
27201;SDS011;14717;46.924;15.474;2023-12-04T00:06:16;18.27;;;10.23;;
27201;SDS011;14717;46.924;15.474;2023-12-04T00:08:42;18.35;;;9.73;;
27201;SDS011;14717;46.924;15.474;2023-12-04T00:11:07;17.25;;;10.10;;
27201;SDS011;14717;46.924;15.474;2023-12-04T00:13:33;19.20;;;9.80;;
27201;SDS011;14717;46.924;15.474;2023-12-04T00:15:59;17.98;;;8.68;;
27201;SDS011;14717;46.924;15.474;2023-12-04T00:18:25;21.23;;;9.60;;
27201;SDS011;14717;46.924;15.474;2023-12-04T00:20:50;16.70;;;9.18;;
27201;SDS011;14717;46.924;15.474;2023-12-04T00:23:15;22.73;;;10.35;;
27201;SDS011;14717;46.924;15.474;2023-12-04T00:25:41;15.77;;;9.60;;
27201;SDS011;14717;46.924;15.474;2023-12-04T00:28:06;16.50;;;9.02;;
27201;SDS011;14717;46.924;15.474;2023-12-04T00:30:32;21.45;;;10.23;;
27201;SDS011;14717;46.924;15.474;2023-12-04T00:32:57;22.60;;;9.88;;
27201;SDS011;14717;46.924;15.474;2023-12-04T00:35:22;18.48;;;10.32;;
27201;SDS011;14717;46.924;15.474;2023-12-04T00:37:48;18.17;;;9.18;;
27201;SDS011;14717;46.924;15.474;2023-12-04T00:40:13;16.58;;;9.18;;
27201;SDS011;14717;46.924;15.474;2023-12-04T00:42:39;16.83;;;8.93;;
27201;SDS011;14717;46.924;15.474;2023-12-04T00:45:04;19.02;;;9.23;;
27201;SDS011;14717;46.924;15.474;2023-12-04T00:47:30;17.25;;;9.18;;
27201;SDS011;14717;46.924;15.474;2023-12-04T00:49:56;20.55;;;9.07;;
27201;SDS011;14717;46.924;15.474;2023-12-04T00:52:21;16.90;;;8.88;;
27201;SDS011;14717;46.924;15.474;2023-12-04T00:54:46;16.67;;;8.65;;
27201;SDS011;14717;46.924;15.474;2023-12-04T00:57:12;16.75;;;9.20;;
27201;SDS011;14717;46.924;15.474;2023-12-04T00:59:37;17.60;;;8.52;;
27201;SDS011;14717;46.924;15.474;2023-12-04T01:02:02;17.92;;;8.02;;
27201;SDS011;14717;46.924;15.474;2023-12-04T01:04:28;14.68;;;7.43;;
27201;SDS011;14717;46.924;15.474;2023-12-04T01:06:54;15.00;;;7.88;;
27201;SDS011;14717;46.924;15.474;2023-12-04T01:09:20;16.13;;;8.30;;
27201;SDS011;14717;46.924;15.474;2023-12-04T01:11:49;18.08;;;8.30;;
27201;SDS011;14717;46.924;15.474;2023-12-04T01:14:16;18.63;;;9.18;;
27201;SDS011;14717;46.924;15.474;2023-12-04T01:16:42;18.48;;;7.82;;
27201;SDS011;14717;46.924;15.474;2023-12-04T01:19:07;20.95;;;8.90;;
27201;SDS011;14717;46.924;15.474;2023-12-04T01:21:33;19.77;;;7.95;;
27201;SDS011;14717;46.924;15.474;2023-12-04T01:23:58;11.98;;;6.50;;
27201;SDS011;14717;46.924;15.474;2023-12-04T01:26:23;10.30;;;6.38;;
27201;SDS011;14717;46.924;15.474;2023-12-04T01:28:49;13.90;;;6.75;;
27201;SDS011;14717;46.924;15.474;2023-12-04T01:31:14;15.15;;;7.30;;
27201;SDS011;14717;46.924;15.474;2023-12-04T01:33:39;19.50;;;8.27;;
27201;SDS011;14717;46.924;15.474;2023-12-04T01:36:05;12.13;;;5.93;;
27201;SDS011;14717;46.924;15.474;2023-12-04T01:38:30;15.07;;;7.00;;
27201;SDS011;14717;46.924;15.474;2023-12-04T01:40:56;13.10;;;6.00;;
27201;SDS011;14717;46.924;15.474;2023-12-04T01:43:21;13.13;;;5.75;;
27201;SDS011;14717;46.924;15.474;2023-12-04T01:45:47;8.68;;;4.13;;
27201;SDS011;14717;46.924;15.474;2023-12-04T01:48:13;9.35;;;5.40;;
27201;SDS011;14717;46.924;15.474;2023-12-04T01:50:39;9.02;;;4.85;;
27201;SDS011;14717;46.924;15.474;2023-12-04T01:53:05;8.88;;;5.05;;
27201;SDS011;14717;46.924;15.474;2023-12-04T01:55:30;10.38;;;4.88;;
27201;SDS011;14717;46.924;15.474;2023-12-04T01:57:59;12.02;;;5.05;;
27201;SDS011;14717;46.924;15.474;2023-12-04T02:00:27;10.15;;;4.95;;
27201;SDS011;14717;46.924;15.474;2023-12-04T02:02:54;10.98;;;5.15;;
27201;SDS011;14717;46.924;15.474;2023-12-04T02:05:20;11.20;;;5.25;;
27201;SDS011;14717;46.924;15.474;2023-12-04T02:07:47;7.07;;;4.75;;
27201;SDS011;14717;46.924;15.474;2023-12-04T02:10:13;9.40;;;5.30;;
27201;SDS011;14717;46.924;15.474;2023-12-04T02:12:39;9.38;;;5.28;;
27201;SDS011;14717;46.924;15.474;2023-12-04T02:15:04;13.20;;;5.43;;
27201;SDS011;14717;46.924;15.474;2023-12-04T02:17:30;11.27;;;4.82;;
27201;SDS011;14717;46.924;15.474;2023-12-04T02:19:57;10.23;;;5.10;;
27201;SDS011;14717;46.924;15.474;2023-12-04T02:22:23;10.07;;;5.03;;
27201;SDS011;14717;46.924;15.474;2023-12-04T02:24:48;9.60;;;4.68;;
27201;SDS011;14717;46.924;15.474;2023-12-04T02:27:20;9.70;;;5.20;;
27201;SDS011;14717;46.924;15.474;2023-12-04T02:29:58;11.13;;;5.35;;
27201;SDS011;14717;46.924;15.474;2023-12-04T02:32:30;12.43;;;5.32;;
27201;SDS011;14717;46.924;15.474;2023-12-04T02:34:58;10.48;;;5.10;;
27201;SDS011;14717;46.924;15.474;2023-12-04T02:37:27;7.45;;;4.72;;
27201;SDS011;14717;46.924;15.474;2023-12-04T02:39:53;8.73;;;4.85;;
27201;SDS011;14717;46.924;15.474;2023-12-04T02:42:20;7.78;;;4.60;;
27201;SDS011;14717;46.924;15.474;2023-12-04T02:44:46;11.27;;;4.47;;
27201;SDS011;14717;46.924;15.474;2023-12-04T02:47:11;8.40;;;4.78;;
27201;SDS011;14717;46.924;15.474;2023-12-04T02:49:37;10.82;;;4.53;;
27201;SDS011;14717;46.924;15.474;2023-12-04T02:52:03;9.18;;;4.13;;
27201;SDS011;14717;46.924;15.474;2023-12-04T02:54:28;8.25;;;4.10;;
27201;SDS011;14717;46.924;15.474;2023-12-04T02:56:54;9.20;;;4.68;;
27201;SDS011;14717;46.924;15.474;2023-12-04T02:59:19;8.95;;;4.30;;
27201;SDS011;14717;46.924;15.474;2023-12-04T03:01:44;8.18;;;4.13;;
27201;SDS011;14717;46.924;15.474;2023-12-04T03:04:10;7.45;;;4.45;;
27201;SDS011;14717;46.924;15.474;2023-12-04T03:06:35;7.97;;;4.07;;
27201;SDS011;14717;46.924;15.474;2023-12-04T03:09:03;6.57;;;3.67;;
27201;SDS011;14717;46.924;15.474;2023-12-04T03:11:28;5.05;;;3.03;;
27201;SDS011;14717;46.924;15.474;2023-12-04T03:13:54;6.40;;;2.90;;
27201;SDS011;14717;46.924;15.474;2023-12-04T03:16:19;9.00;;;3.63;;
27201;SDS011;14717;46.924;15.474;2023-12-04T03:18:45;7.72;;;3.70;;
27201;SDS011;14717;46.924;15.474;2023-12-04T03:21:10;8.90;;;3.22;;
27201;SDS011;14717;46.924;15.474;2023-12-04T03:23:36;9.55;;;4.35;;
27201;SDS011;14717;46.924;15.474;2023-12-04T03:26:01;12.45;;;3.97;;
27201;SDS011;14717;46.924;15.474;2023-12-04T03:28:27;7.10;;;3.58;;
27201;SDS011;14717;46.924;15.474;2023-12-04T03:30:53;6.65;;;3.22;;
27201;SDS011;14717;46.924;15.474;2023-12-04T03:33:18;6.72;;;3.88;;
27201;SDS011;14717;46.924;15.474;2023-12-04T03:35:43;10.02;;;4.22;;
27201;SDS011;14717;46.924;15.474;2023-12-04T03:38:09;6.30;;;3.65;;
27201;SDS011;14717;46.924;15.474;2023-12-04T03:40:34;9.45;;;4.30;;
27201;SDS011;14717;46.924;15.474;2023-12-04T03:43:00;11.48;;;3.72;;
27201;SDS011;14717;46.924;15.474;2023-12-04T03:45:25;8.77;;;3.90;;
27201;SDS011;14717;46.924;15.474;2023-12-04T03:47:50;6.68;;;3.90;;
27201;SDS011;14717;46.924;15.474;2023-12-04T03:50:16;6.75;;;3.78;;
27201;SDS011;14717;46.924;15.474;2023-12-04T03:52:41;10.80;;;4.30;;
27201;SDS011;14717;46.924;15.474;2023-12-04T03:55:07;8.60;;;4.10;;
27201;SDS011;14717;46.924;15.474;2023-12-04T03:57:33;9.95;;;3.67;;
27201;SDS011;14717;46.924;15.474;2023-12-04T03:59:58;6.53;;;3.65;;
27201;SDS011;14717;46.924;15.474;2023-12-04T04:02:24;8.15;;;3.83;;
27201;SDS011;14717;46.924;15.474;2023-12-04T04:04:49;7.38;;;3.58;;
27201;SDS011;14717;46.924;15.474;2023-12-04T04:07:15;9.23;;;4.10;;
27201;SDS011;14717;46.924;15.474;2023-12-04T04:09:42;10.18;;;3.50;;
27201;SDS011;14717;46.924;15.474;2023-12-04T04:12:08;6.88;;;3.60;;
27201;SDS011;14717;46.924;15.474;2023-12-04T04:14:33;7.53;;;3.65;;
27201;SDS011;14717;46.924;15.474;2023-12-04T04:16:59;6.07;;;3.25;;
27201;SDS011;14717;46.924;15.474;2023-12-04T04:19:24;7.65;;;3.20;;
27201;SDS011;14717;46.924;15.474;2023-12-04T04:21:49;6.28;;;3.30;;
27201;SDS011;14717;46.924;15.474;2023-12-04T04:24:15;6.18;;;3.65;;
27201;SDS011;14717;46.924;15.474;2023-12-04T04:26:40;6.50;;;3.67;;
27201;SDS011;14717;46.924;15.474;2023-12-04T04:29:05;8.23;;;3.85;;
27201;SDS011;14717;46.924;15.474;2023-12-04T04:31:31;10.30;;;4.13;;
27201;SDS011;14717;46.924;15.474;2023-12-04T04:33:56;10.43;;;3.85;;
27201;SDS011;14717;46.924;15.474;2023-12-04T04:36:21;8.15;;;3.90;;
27201;SDS011;14717;46.924;15.474;2023-12-04T04:38:47;10.80;;;4.30;;
27201;SDS011;14717;46.924;15.474;2023-12-04T04:41:15;6.40;;;3.70;;
27201;SDS011;14717;46.924;15.474;2023-12-04T04:43:41;6.78;;;3.78;;
27201;SDS011;14717;46.924;15.474;2023-12-04T04:46:07;8.55;;;4.30;;
27201;SDS011;14717;46.924;15.474;2023-12-04T04:48:32;8.77;;;4.13;;
27201;SDS011;14717;46.924;15.474;2023-12-04T04:50:58;8.63;;;3.85;;
27201;SDS011;14717;46.924;15.474;2023-12-04T04:53:23;7.65;;;3.60;;
27201;SDS011;14717;46.924;15.474;2023-12-04T04:55:48;9.88;;;4.15;;
27201;SDS011;14717;46.924;15.474;2023-12-04T04:58:14;10.20;;;4.38;;
27201;SDS011;14717;46.924;15.474;2023-12-04T05:00:39;9.75;;;4.30;;
27201;SDS011;14717;46.924;15.474;2023-12-04T05:03:04;8.90;;;4.47;;
27201;SDS011;14717;46.924;15.474;2023-12-04T05:05:30;11.20;;;4.65;;
27201;SDS011;14717;46.924;15.474;2023-12-04T05:07:55;8.38;;;4.10;;
27201;SDS011;14717;46.924;15.474;2023-12-04T05:10:20;10.15;;;4.32;;
27201;SDS011;14717;46.924;15.474;2023-12-04T05:12:46;12.63;;;4.38;;
27201;SDS011;14717;46.924;15.474;2023-12-04T05:15:11;10.77;;;3.97;;
27201;SDS011;14717;46.924;15.474;2023-12-04T05:17:36;12.88;;;5.20;;
27201;SDS011;14717;46.924;15.474;2023-12-04T05:20:02;14.77;;;5.60;;
27201;SDS011;14717;46.924;15.474;2023-12-04T05:22:27;11.23;;;5.00;;
27201;SDS011;14717;46.924;15.474;2023-12-04T05:24:53;16.38;;;5.50;;
27201;SDS011;14717;46.924;15.474;2023-12-04T05:27:18;40.03;;;10.77;;
27201;SDS011;14717;46.924;15.474;2023-12-04T05:29:43;57.38;;;18.13;;
27201;SDS011;14717;46.924;15.474;2023-12-04T05:32:09;36.90;;;12.45;;
27201;SDS011;14717;46.924;15.474;2023-12-04T05:34:34;51.47;;;14.50;;
27201;SDS011;14717;46.924;15.474;2023-12-04T05:36:59;64.28;;;17.85;;
27201;SDS011;14717;46.924;15.474;2023-12-04T05:39:25;54.80;;;14.07;;
27201;SDS011;14717;46.924;15.474;2023-12-04T05:41:50;53.13;;;14.50;;
27201;SDS011;14717;46.924;15.474;2023-12-04T05:44:16;52.60;;;13.63;;
27201;SDS011;14717;46.924;15.474;2023-12-04T05:46:41;54.15;;;13.88;;
27201;SDS011;14717;46.924;15.474;2023-12-04T05:49:06;56.15;;;13.93;;
27201;SDS011;14717;46.924;15.474;2023-12-04T05:51:32;42.78;;;13.32;;
27201;SDS011;14717;46.924;15.474;2023-12-04T05:53:57;45.33;;;12.77;;
27201;SDS011;14717;46.924;15.474;2023-12-04T05:56:23;37.75;;;10.98;;
27201;SDS011;14717;46.924;15.474;2023-12-04T05:58:48;35.25;;;10.35;;
27201;SDS011;14717;46.924;15.474;2023-12-04T06:01:14;22.33;;;8.70;;
27201;SDS011;14717;46.924;15.474;2023-12-04T06:03:40;42.97;;;12.68;;
27201;SDS011;14717;46.924;15.474;2023-12-04T06:06:05;32.88;;;10.95;;
27201;SDS011;14717;46.924;15.474;2023-12-04T06:08:31;27.15;;;8.13;;
27201;SDS011;14717;46.924;15.474;2023-12-04T06:10:56;32.55;;;11.10;;
27201;SDS011;14717;46.924;15.474;2023-12-04T06:13:22;24.13;;;9.57;;
27201;SDS011;14717;46.924;15.474;2023-12-04T06:15:47;22.67;;;8.20;;
27201;SDS011;14717;46.924;15.474;2023-12-04T06:18:13;30.75;;;8.60;;
27201;SDS011;14717;46.924;15.474;2023-12-04T06:20:38;21.25;;;7.53;;
27201;SDS011;14717;46.924;15.474;2023-12-04T06:23:03;19.45;;;7.28;;
27201;SDS011;14717;46.924;15.474;2023-12-04T06:25:29;21.48;;;9.05;;
27201;SDS011;14717;46.924;15.474;2023-12-04T06:27:55;18.20;;;7.55;;
27201;SDS011;14717;46.924;15.474;2023-12-04T06:30:20;22.33;;;8.27;;
27201;SDS011;14717;46.924;15.474;2023-12-04T06:32:46;18.63;;;8.52;;
27201;SDS011;14717;46.924;15.474;2023-12-04T06:35:12;22.20;;;7.97;;
27201;SDS011;14717;46.924;15.474;2023-12-04T06:37:38;17.85;;;8.02;;
27201;SDS011;14717;46.924;15.474;2023-12-04T06:40:05;26.42;;;8.40;;
27201;SDS011;14717;46.924;15.474;2023-12-04T06:42:33;15.70;;;6.95;;
27201;SDS011;14717;46.924;15.474;2023-12-04T06:45:00;17.10;;;6.38;;
27201;SDS011;14717;46.924;15.474;2023-12-04T06:47:25;17.80;;;6.75;;
27201;SDS011;14717;46.924;15.474;2023-12-04T06:49:52;17.90;;;6.70;;
27201;SDS011;14717;46.924;15.474;2023-12-04T06:52:18;14.63;;;5.82;;
27201;SDS011;14717;46.924;15.474;2023-12-04T06:54:43;14.98;;;6.72;;
27201;SDS011;14717;46.924;15.474;2023-12-04T06:57:08;13.75;;;5.60;;
27201;SDS011;14717;46.924;15.474;2023-12-04T06:59:34;14.25;;;6.70;;
27201;SDS011;14717;46.924;15.474;2023-12-04T07:01:59;14.57;;;6.93;;
27201;SDS011;14717;46.924;15.474;2023-12-04T07:04:24;13.27;;;6.32;;
27201;SDS011;14717;46.924;15.474;2023-12-04T07:06:50;16.70;;;6.85;;
27201;SDS011;14717;46.924;15.474;2023-12-04T07:09:15;18.25;;;6.85;;
27201;SDS011;14717;46.924;15.474;2023-12-04T07:11:44;13.80;;;5.85;;
27201;SDS011;14717;46.924;15.474;2023-12-04T07:14:09;16.42;;;7.20;;
27201;SDS011;14717;46.924;15.474;2023-12-04T07:16:38;14.13;;;6.82;;
27201;SDS011;14717;46.924;15.474;2023-12-04T07:19:07;14.45;;;6.93;;
27201;SDS011;14717;46.924;15.474;2023-12-04T07:21:34;18.77;;;6.57;;
27201;SDS011;14717;46.924;15.474;2023-12-04T07:23:59;15.75;;;8.00;;
27201;SDS011;14717;46.924;15.474;2023-12-04T07:26:24;13.50;;;6.57;;
27201;SDS011;14717;46.924;15.474;2023-12-04T07:28:50;19.75;;;6.75;;
27201;SDS011;14717;46.924;15.474;2023-12-04T07:31:15;14.05;;;7.00;;
27201;SDS011;14717;46.924;15.474;2023-12-04T07:33:40;12.75;;;6.78;;
27201;SDS011;14717;46.924;15.474;2023-12-04T07:36:06;11.95;;;6.90;;
27201;SDS011;14717;46.924;15.474;2023-12-04T07:38:32;19.77;;;7.57;;
27201;SDS011;14717;46.924;15.474;2023-12-04T07:40:57;13.07;;;6.63;;
27201;SDS011;14717;46.924;15.474;2023-12-04T07:43:23;12.07;;;7.07;;
27201;SDS011;14717;46.924;15.474;2023-12-04T07:45:48;15.65;;;7.10;;
27201;SDS011;14717;46.924;15.474;2023-12-04T07:48:14;9.45;;;4.80;;
27201;SDS011;14717;46.924;15.474;2023-12-04T07:50:39;10.73;;;5.07;;
27201;SDS011;14717;46.924;15.474;2023-12-04T07:53:05;11.80;;;5.00;;
27201;SDS011;14717;46.924;15.474;2023-12-04T07:55:32;9.02;;;4.43;;
27201;SDS011;14717;46.924;15.474;2023-12-04T07:57:58;8.18;;;4.00;;
27201;SDS011;14717;46.924;15.474;2023-12-04T08:00:23;12.30;;;5.07;;
27201;SDS011;14717;46.924;15.474;2023-12-04T08:02:50;9.55;;;4.28;;
27201;SDS011;14717;46.924;15.474;2023-12-04T08:05:16;8.38;;;4.63;;
27201;SDS011;14717;46.924;15.474;2023-12-04T08:07:42;9.57;;;4.55;;
27201;SDS011;14717;46.924;15.474;2023-12-04T08:10:07;9.20;;;4.75;;
27201;SDS011;14717;46.924;15.474;2023-12-04T08:12:33;10.93;;;4.80;;
27201;SDS011;14717;46.924;15.474;2023-12-04T08:14:59;11.18;;;4.63;;
27201;SDS011;14717;46.924;15.474;2023-12-04T08:17:26;8.48;;;4.40;;
27201;SDS011;14717;46.924;15.474;2023-12-04T08:19:52;11.00;;;4.65;;
27201;SDS011;14717;46.924;15.474;2023-12-04T08:22:17;11.32;;;4.38;;
27201;SDS011;14717;46.924;15.474;2023-12-04T08:24:43;6.88;;;3.92;;
27201;SDS011;14717;46.924;15.474;2023-12-04T08:27:08;7.78;;;4.60;;
27201;SDS011;14717;46.924;15.474;2023-12-04T08:29:33;8.57;;;3.90;;
27201;SDS011;14717;46.924;15.474;2023-12-04T08:31:59;10.13;;;4.35;;
27201;SDS011;14717;46.924;15.474;2023-12-04T08:34:25;6.45;;;3.95;;
27201;SDS011;14717;46.924;15.474;2023-12-04T08:36:50;7.70;;;4.15;;
27201;SDS011;14717;46.924;15.474;2023-12-04T08:39:16;11.10;;;4.75;;
27201;SDS011;14717;46.924;15.474;2023-12-04T08:41:44;10.75;;;4.68;;
27201;SDS011;14717;46.924;15.474;2023-12-04T08:44:10;7.97;;;4.45;;
27201;SDS011;14717;46.924;15.474;2023-12-04T08:46:36;9.65;;;4.25;;
27201;SDS011;14717;46.924;15.474;2023-12-04T08:49:01;9.75;;;4.63;;
27201;SDS011;14717;46.924;15.474;2023-12-04T08:51:27;11.93;;;4.68;;
27201;SDS011;14717;46.924;15.474;2023-12-04T08:53:52;8.90;;;4.65;;
27201;SDS011;14717;46.924;15.474;2023-12-04T08:56:17;12.40;;;4.95;;
27201;SDS011;14717;46.924;15.474;2023-12-04T08:58:43;7.65;;;4.15;;
27201;SDS011;14717;46.924;15.474;2023-12-04T09:01:09;7.38;;;4.43;;
27201;SDS011;14717;46.924;15.474;2023-12-04T09:03:35;8.60;;;4.18;;
27201;SDS011;14717;46.924;15.474;2023-12-04T09:06:01;9.73;;;4.70;;
27201;SDS011;14717;46.924;15.474;2023-12-04T09:08:26;8.05;;;4.10;;
27201;SDS011;14717;46.924;15.474;2023-12-04T09:10:52;10.32;;;5.00;;
27201;SDS011;14717;46.924;15.474;2023-12-04T09:13:17;7.93;;;3.83;;
27201;SDS011;14717;46.924;15.474;2023-12-04T09:15:43;9.88;;;4.90;;
27201;SDS011;14717;46.924;15.474;2023-12-04T09:18:08;8.90;;;4.65;;
27201;SDS011;14717;46.924;15.474;2023-12-04T09:20:34;9.57;;;4.35;;
27201;SDS011;14717;46.924;15.474;2023-12-04T09:22:59;10.02;;;4.80;;
27201;SDS011;14717;46.924;15.474;2023-12-04T09:25:24;8.70;;;4.53;;
27201;SDS011;14717;46.924;15.474;2023-12-04T09:27:50;9.63;;;4.80;;
27201;SDS011;14717;46.924;15.474;2023-12-04T09:30:15;10.30;;;5.18;;
27201;SDS011;14717;46.924;15.474;2023-12-04T09:32:41;9.38;;;4.90;;
27201;SDS011;14717;46.924;15.474;2023-12-04T09:35:06;11.35;;;5.82;;
27201;SDS011;14717;46.924;15.474;2023-12-04T09:37:32;9.07;;;5.30;;
27201;SDS011;14717;46.924;15.474;2023-12-04T09:39:57;10.27;;;5.50;;
27201;SDS011;14717;46.924;15.474;2023-12-04T09:42:23;9.85;;;5.05;;
27201;SDS011;14717;46.924;15.474;2023-12-04T09:44:48;10.35;;;5.75;;
27201;SDS011;14717;46.924;15.474;2023-12-04T09:47:17;9.23;;;5.47;;
27201;SDS011;14717;46.924;15.474;2023-12-04T09:49:44;9.45;;;4.78;;
27201;SDS011;14717;46.924;15.474;2023-12-04T09:57:01;8.93;;;4.50;;
27201;SDS011;14717;46.924;15.474;2023-12-04T09:59:28;8.70;;;4.93;;
27201;SDS011;14717;46.924;15.474;2023-12-04T10:01:55;10.10;;;5.45;;
27201;SDS011;14717;46.924;15.474;2023-12-04T10:04:21;9.35;;;5.30;;
27201;SDS011;14717;46.924;15.474;2023-12-04T10:06:49;10.85;;;4.93;;
27201;SDS011;14717;46.924;15.474;2023-12-04T10:09:17;10.43;;;4.80;;
27201;SDS011;14717;46.924;15.474;2023-12-04T10:11:44;7.63;;;4.82;;
27201;SDS011;14717;46.924;15.474;2023-12-04T10:14:28;9.05;;;4.85;;
27201;SDS011;14717;46.924;15.474;2023-12-04T10:16:53;15.43;;;6.55;;
27201;SDS011;14717;46.924;15.474;2023-12-04T10:19:25;10.85;;;5.60;;
27201;SDS011;14717;46.924;15.474;2023-12-04T10:21:52;10.70;;;5.25;;
27201;SDS011;14717;46.924;15.474;2023-12-04T10:24:26;10.18;;;4.78;;
27201;SDS011;14717;46.924;15.474;2023-12-04T10:26:53;11.45;;;5.72;;
27201;SDS011;14717;46.924;15.474;2023-12-04T10:29:18;13.25;;;5.82;;
27201;SDS011;14717;46.924;15.474;2023-12-04T10:31:44;12.50;;;6.90;;
27201;SDS011;14717;46.924;15.474;2023-12-04T10:34:09;13.32;;;5.78;;
27201;SDS011;14717;46.924;15.474;2023-12-04T10:36:35;11.00;;;4.75;;
27201;SDS011;14717;46.924;15.474;2023-12-04T10:39:02;13.38;;;6.90;;
27201;SDS011;14717;46.924;15.474;2023-12-04T10:41:30;14.35;;;5.25;;
27201;SDS011;14717;46.924;15.474;2023-12-04T10:43:58;9.65;;;5.07;;
27201;SDS011;14717;46.924;15.474;2023-12-04T10:46:25;10.13;;;4.70;;
27201;SDS011;14717;46.924;15.474;2023-12-04T10:48:51;10.18;;;4.55;;
27201;SDS011;14717;46.924;15.474;2023-12-04T10:51:17;13.27;;;4.47;;
27201;SDS011;14717;46.924;15.474;2023-12-04T10:53:44;9.13;;;4.90;;
27201;SDS011;14717;46.924;15.474;2023-12-04T10:56:19;12.20;;;6.45;;
27201;SDS011;14717;46.924;15.474;2023-12-04T10:58:50;8.43;;;4.82;;
27201;SDS011;14717;46.924;15.474;2023-12-04T11:01:18;6.88;;;4.30;;
27201;SDS011;14717;46.924;15.474;2023-12-04T11:03:44;8.27;;;4.45;;
27201;SDS011;14717;46.924;15.474;2023-12-04T11:06:13;8.57;;;4.43;;
27201;SDS011;14717;46.924;15.474;2023-12-04T11:08:42;9.55;;;4.47;;
27201;SDS011;14717;46.924;15.474;2023-12-04T11:11:10;9.73;;;4.63;;
27201;SDS011;14717;46.924;15.474;2023-12-04T11:13:40;8.40;;;4.50;;
27201;SDS011;14717;46.924;15.474;2023-12-04T11:16:08;7.55;;;4.72;;
27201;SDS011;14717;46.924;15.474;2023-12-04T11:21:53;8.35;;;4.55;;
27201;SDS011;14717;46.924;15.474;2023-12-04T11:24:22;6.70;;;3.72;;
27201;SDS011;14717;46.924;15.474;2023-12-04T11:26:49;9.35;;;4.70;;
27201;SDS011;14717;46.924;15.474;2023-12-04T11:29:15;9.07;;;4.75;;
27201;SDS011;14717;46.924;15.474;2023-12-04T11:31:42;9.23;;;4.43;;
27201;SDS011;14717;46.924;15.474;2023-12-04T11:34:07;11.55;;;4.93;;
27201;SDS011;14717;46.924;15.474;2023-12-04T11:36:36;10.63;;;5.78;;
27201;SDS011;14717;46.924;15.474;2023-12-04T11:39:02;9.32;;;4.78;;
27201;SDS011;14717;46.924;15.474;2023-12-04T11:41:29;11.13;;;4.65;;
27201;SDS011;14717;46.924;15.474;2023-12-04T11:43:55;9.13;;;5.50;;
27201;SDS011;14717;46.924;15.474;2023-12-04T11:46:21;7.22;;;4.47;;
27201;SDS011;14717;46.924;15.474;2023-12-04T11:48:49;10.00;;;5.13;;
27201;SDS011;14717;46.924;15.474;2023-12-04T11:54:08;9.10;;;5.22;;
27201;SDS011;14717;46.924;15.474;2023-12-04T11:56:35;10.35;;;5.60;;
27201;SDS011;14717;46.924;15.474;2023-12-04T11:59:03;9.25;;;5.20;;
27201;SDS011;14717;46.924;15.474;2023-12-04T12:01:36;12.45;;;6.05;;
27201;SDS011;14717;46.924;15.474;2023-12-04T12:04:05;10.32;;;5.90;;
27201;SDS011;14717;46.924;15.474;2023-12-04T12:06:30;9.95;;;5.55;;
27201;SDS011;14717;46.924;15.474;2023-12-04T12:08:56;8.80;;;4.90;;
27201;SDS011;14717;46.924;15.474;2023-12-04T12:11:22;10.88;;;5.97;;
27201;SDS011;14717;46.924;15.474;2023-12-04T12:13:48;9.20;;;4.97;;
27201;SDS011;14717;46.924;15.474;2023-12-04T12:16:14;10.43;;;6.03;;
27201;SDS011;14717;46.924;15.474;2023-12-04T12:18:40;8.50;;;5.50;;
27201;SDS011;14717;46.924;15.474;2023-12-04T12:21:06;8.60;;;5.07;;
27201;SDS011;14717;46.924;15.474;2023-12-04T12:23:32;9.73;;;6.10;;
27201;SDS011;14717;46.924;15.474;2023-12-04T12:25:58;10.45;;;5.40;;
27201;SDS011;14717;46.924;15.474;2023-12-04T12:28:24;12.23;;;5.95;;
27201;SDS011;14717;46.924;15.474;2023-12-04T12:30:50;11.90;;;6.43;;
27201;SDS011;14717;46.924;15.474;2023-12-04T12:33:15;11.60;;;5.70;;
27201;SDS011;14717;46.924;15.474;2023-12-04T12:35:41;11.32;;;5.88;;
27201;SDS011;14717;46.924;15.474;2023-12-04T12:38:07;11.93;;;6.45;;
27201;SDS011;14717;46.924;15.474;2023-12-04T12:40:33;10.77;;;5.68;;
27201;SDS011;14717;46.924;15.474;2023-12-04T12:43:09;10.82;;;6.43;;
27201;SDS011;14717;46.924;15.474;2023-12-04T12:45:41;10.30;;;5.50;;
27201;SDS011;14717;46.924;15.474;2023-12-04T12:48:14;11.68;;;6.88;;
27201;SDS011;14717;46.924;15.474;2023-12-04T12:50:41;13.73;;;6.93;;
27201;SDS011;14717;46.924;15.474;2023-12-04T12:53:11;10.60;;;6.32;;
27201;SDS011;14717;46.924;15.474;2023-12-04T12:55:40;12.23;;;6.07;;
27201;SDS011;14717;46.924;15.474;2023-12-04T12:58:08;12.45;;;6.07;;
27201;SDS011;14717;46.924;15.474;2023-12-04T13:00:34;11.85;;;6.45;;
27201;SDS011;14717;46.924;15.474;2023-12-04T13:02:59;13.63;;;6.38;;
27201;SDS011;14717;46.924;15.474;2023-12-04T13:05:26;12.80;;;7.00;;
27201;SDS011;14717;46.924;15.474;2023-12-04T13:07:51;11.57;;;6.03;;
27201;SDS011;14717;46.924;15.474;2023-12-04T13:10:17;9.40;;;5.70;;
27201;SDS011;14717;46.924;15.474;2023-12-04T13:12:42;14.98;;;6.35;;
27201;SDS011;14717;46.924;15.474;2023-12-04T13:15:08;13.63;;;6.45;;
27201;SDS011;14717;46.924;15.474;2023-12-04T13:17:34;13.50;;;6.70;;
27201;SDS011;14717;46.924;15.474;2023-12-04T13:19:59;10.15;;;5.57;;
27201;SDS011;14717;46.924;15.474;2023-12-04T13:22:25;10.35;;;5.57;;
27201;SDS011;14717;46.924;15.474;2023-12-04T13:24:52;11.23;;;5.80;;
27201;SDS011;14717;46.924;15.474;2023-12-04T13:27:18;11.68;;;6.05;;
27201;SDS011;14717;46.924;15.474;2023-12-04T13:29:43;10.82;;;6.50;;
27201;SDS011;14717;46.924;15.474;2023-12-04T13:32:08;12.05;;;6.22;;
27201;SDS011;14717;46.924;15.474;2023-12-04T13:34:34;12.40;;;5.80;;
27201;SDS011;14717;46.924;15.474;2023-12-04T13:36:59;13.50;;;6.82;;
27201;SDS011;14717;46.924;15.474;2023-12-04T13:39:24;12.55;;;6.28;;
27201;SDS011;14717;46.924;15.474;2023-12-04T13:42:12;13.43;;;5.93;;
27201;SDS011;14717;46.924;15.474;2023-12-04T13:44:56;10.98;;;6.30;;
27201;SDS011;14717;46.924;15.474;2023-12-04T13:47:21;9.70;;;6.32;;
27201;SDS011;14717;46.924;15.474;2023-12-04T13:49:46;13.38;;;7.38;;
27201;SDS011;14717;46.924;15.474;2023-12-04T13:52:12;21.00;;;9.02;;
27201;SDS011;14717;46.924;15.474;2023-12-04T13:54:37;13.07;;;6.78;;
27201;SDS011;14717;46.924;15.474;2023-12-04T13:57:12;12.48;;;6.95;;
27201;SDS011;14717;46.924;15.474;2023-12-04T13:59:53;12.68;;;6.28;;
27201;SDS011;14717;46.924;15.474;2023-12-04T14:02:18;13.43;;;7.65;;
27201;SDS011;14717;46.924;15.474;2023-12-04T14:04:44;13.35;;;6.90;;
27201;SDS011;14717;46.924;15.474;2023-12-04T14:07:09;13.18;;;7.10;;
27201;SDS011;14717;46.924;15.474;2023-12-04T14:09:36;10.73;;;6.63;;
27201;SDS011;14717;46.924;15.474;2023-12-04T14:12:02;11.50;;;5.88;;
27201;SDS011;14717;46.924;15.474;2023-12-04T14:14:28;14.38;;;7.95;;
27201;SDS011;14717;46.924;15.474;2023-12-04T14:16:53;15.98;;;8.50;;
27201;SDS011;14717;46.924;15.474;2023-12-04T14:19:19;19.25;;;9.25;;
27201;SDS011;14717;46.924;15.474;2023-12-04T14:21:46;13.27;;;6.35;;
27201;SDS011;14717;46.924;15.474;2023-12-04T14:24:13;9.90;;;5.63;;
27201;SDS011;14717;46.924;15.474;2023-12-04T14:26:38;23.23;;;10.20;;
27201;SDS011;14717;46.924;15.474;2023-12-04T14:29:04;17.25;;;8.80;;
27201;SDS011;14717;46.924;15.474;2023-12-04T14:31:31;14.98;;;7.10;;